createdAt,value
2023-01-07T00:00:04.616Z,1025.27
2023-01-07T00:10:00.244Z,1025.14
2023-01-07T00:20:01.166Z,1025.02
2023-01-07T00:30:00.813Z,1025.08
2023-01-07T00:50:00.665Z,1025.09
2023-01-07T01:00:00.921Z,1025.21
2023-01-07T01:10:00.880Z,1025.21
2023-01-07T01:20:01.227Z,1025.19
2023-01-07T01:30:00.865Z,1025.26
2023-01-07T01:50:01.106Z,1025.06
2023-01-07T02:00:01.413Z,1025.01
2023-01-07T02:10:01.088Z,1025.04
2023-01-07T02:20:01.700Z,1024.98
2023-01-07T02:30:00.900Z,1025.03
2023-01-07T02:40:01.338Z,1024.88
2023-01-07T02:50:00.859Z,1024.80
2023-01-07T03:00:02.674Z,1024.88
2023-01-07T03:10:01.384Z,1024.87
2023-01-07T03:30:00.236Z,1024.84
2023-01-07T03:50:01.108Z,1024.84
2023-01-07T04:10:01.339Z,1024.43
2023-01-07T04:20:02.670Z,1024.35
2023-01-07T04:30:01.006Z,1024.22
2023-01-07T04:50:00.870Z,1024.30
2023-01-07T05:00:01.006Z,1024.30
2023-01-07T05:10:01.161Z,1024.34
2023-01-07T05:20:01.242Z,1024.31
2023-01-07T05:30:00.978Z,1024.27
2023-01-07T05:40:01.205Z,1024.14
2023-01-07T05:50:01.092Z,1024.06
2023-01-07T06:00:00.850Z,1024.05
2023-01-07T06:10:02.881Z,1024.00
2023-01-07T06:20:00.953Z,1024.07
2023-01-07T06:30:00.964Z,1024.13
2023-01-07T06:40:01.364Z,1024.25
2023-01-07T06:50:01.014Z,1024.30
2023-01-07T07:00:01.141Z,1024.29
2023-01-07T07:10:01.213Z,1024.34
2023-01-07T07:20:01.172Z,1024.40
2023-01-07T07:30:01.029Z,1024.40
2023-01-07T07:40:01.163Z,1024.47
2023-01-07T07:50:01.105Z,1024.51
2023-01-07T08:10:00.991Z,1024.44
2023-01-07T08:20:01.393Z,1024.36
2023-01-07T08:30:01.428Z,1024.31
2023-01-07T08:40:02.261Z,1024.26
2023-01-07T08:50:01.655Z,1024.15
2023-01-07T09:00:01.561Z,1024.09
2023-01-07T09:10:01.309Z,1024.05
2023-01-07T09:20:01.299Z,1024.00
2023-01-07T09:30:01.450Z,1023.91
2023-01-07T09:40:01.246Z,1023.84
2023-01-07T09:50:00.214Z,1023.79
2023-01-07T10:00:01.348Z,1023.60
2023-01-07T10:10:00.987Z,1023.56
2023-01-07T10:20:01.080Z,1023.44
2023-01-07T10:30:01.010Z,1023.32
2023-01-07T10:40:01.053Z,1023.06
2023-01-07T10:50:02.219Z,1022.92
2023-01-07T11:00:01.112Z,1022.82
2023-01-07T11:10:01.348Z,1022.67
2023-01-07T11:20:01.153Z,1022.46
2023-01-07T11:30:00.216Z,1022.19
2023-01-07T11:40:01.188Z,1022.07
2023-01-07T11:50:01.266Z,1022.04
2023-01-07T12:00:01.574Z,1021.95
2023-01-07T12:10:01.190Z,1021.83
2023-01-07T12:30:01.276Z,1021.72
2023-01-07T12:40:01.090Z,1021.63
2023-01-07T12:50:01.656Z,1021.50
2023-01-07T13:00:01.411Z,1021.38
2023-01-07T13:10:01.304Z,1021.21
2023-01-07T13:20:03.405Z,1021.11
2023-01-07T13:30:01.295Z,1021.03
2023-01-07T13:50:01.119Z,1020.85
2023-01-07T14:00:01.176Z,1020.58
2023-01-07T14:10:03.291Z,1020.46
2023-01-07T14:20:00.879Z,1020.39
2023-01-07T14:30:11.217Z,1020.33
2023-01-07T14:40:01.139Z,1020.33
2023-01-07T14:50:00.914Z,1020.33
2023-01-07T15:00:01.231Z,1020.34
2023-01-07T15:10:00.835Z,1020.42
2023-01-07T15:20:01.169Z,1020.59
2023-01-07T15:30:01.300Z,1020.53
2023-01-07T15:40:01.020Z,1020.45
2023-01-07T15:50:01.320Z,1020.40
2023-01-07T16:00:01.413Z,1020.45
2023-01-07T16:10:00.917Z,1020.41
2023-01-07T16:30:00.850Z,1020.23
2023-01-07T16:40:01.096Z,1020.05
2023-01-07T16:50:01.123Z,1019.96
2023-01-07T17:00:01.299Z,1019.92
2023-01-07T17:10:01.334Z,1019.77
2023-01-07T17:20:01.007Z,1019.56
2023-01-07T17:30:02.541Z,1019.48
2023-01-07T17:40:00.343Z,1019.45
2023-01-07T17:50:01.131Z,1019.39
2023-01-07T18:00:00.984Z,1019.37
2023-01-07T18:10:00.806Z,1019.36
2023-01-07T18:20:00.973Z,1019.26
2023-01-07T18:30:01.055Z,1019.18
2023-01-07T18:40:00.921Z,1019.02
2023-01-07T18:50:00.888Z,1019.09
2023-01-07T19:10:00.875Z,1018.73
2023-01-07T19:30:01.660Z,1018.50
2023-01-07T19:40:01.659Z,1018.34
2023-01-07T19:50:00.995Z,1018.19
2023-01-07T20:10:02.334Z,1018.02
2023-01-07T20:20:01.146Z,1017.82
2023-01-07T20:30:00.856Z,1017.71
2023-01-07T20:40:00.331Z,1017.71
2023-01-07T20:50:00.828Z,1017.58
2023-01-07T21:00:01.518Z,1017.49
2023-01-07T21:10:01.625Z,1017.33
2023-01-07T21:30:01.107Z,1016.93
2023-01-07T21:40:02.257Z,1016.81
2023-01-07T21:50:01.244Z,1016.77
2023-01-07T22:00:01.594Z,1016.76
2023-01-07T22:10:01.243Z,1016.69
2023-01-07T22:20:01.398Z,1016.60
2023-01-07T22:30:01.468Z,1016.52
2023-01-07T22:40:01.063Z,1016.29
2023-01-07T22:50:01.258Z,1016.34
2023-01-07T23:00:02.916Z,1016.30
2023-01-07T23:10:01.990Z,1016.26
2023-01-07T23:30:01.448Z,1016.11
2023-01-07T23:40:03.483Z,1016.06
2023-01-07T23:50:01.021Z,1015.87
